Time;durP1;ratioP1;P1;durP2;ratioP2;P2;SDS_P1;SDS_P2;PMS_P1;PMS_P2;Temp;Humidity;BMP_temperature;BMP_pressure;BME280_temperature;BME280_humidity;BME280_pressure;Samples;Min_cycle;Max_cycle;Signal;HPM_P1;HPM_P2
2023/01/13 00:02:14;;;;;;;23.30;5.18;;;8.00;99.90;;;;;;5046035;28;20038;-55
2023/01/13 00:04:41;;;;;;;22.52;3.58;;;8.00;99.90;;;;;;5048158;28;20029;-58
2023/01/13 00:07:08;;;;;;;20.10;3.63;;;8.00;99.90;;;;;;5055656;28;20112;-52
2023/01/13 00:09:35;;;;;;;19.50;4.13;;;8.00;99.90;;;;;;5055446;28;20133;-57
2023/01/13 00:12:02;;;;;;;16.35;3.97;;;7.90;99.90;;;;;;5055824;28;20071;-55
2023/01/13 00:14:32;;;;;;;14.52;3.15;;;7.90;99.90;;;;;;5054180;28;20061;-54
2023/01/13 00:16:58;;;;;;;19.45;3.72;;;7.90;99.90;;;;;;5054516;28;20084;-54
2023/01/13 00:19:25;;;;;;;15.35;3.28;;;7.90;99.90;;;;;;5055268;28;20102;-57
2023/01/13 00:21:52;;;;;;;23.80;3.70;;;7.90;99.90;;;;;;5055508;28;20041;-52
2023/01/13 00:24:19;;;;;;;16.08;3.35;;;7.90;99.90;;;;;;5055377;28;20099;-56
2023/01/13 00:26:45;;;;;;;19.55;3.67;;;7.90;99.90;;;;;;5055406;28;20148;-55
2023/01/13 00:29:12;;;;;;;17.67;3.33;;;7.90;99.90;;;;;;5054240;28;20053;-53
2023/01/13 00:31:40;;;;;;;21.02;3.88;;;7.90;99.90;;;;;;5055254;28;20488;-52
2023/01/13 00:34:06;;;;;;;17.23;2.80;;;7.80;99.90;;;;;;5054703;28;20037;-53
2023/01/13 00:36:33;;;;;;;19.58;3.90;;;7.90;99.90;;;;;;5054908;28;20085;-53
2023/01/13 00:39:00;;;;;;;15.95;3.20;;;7.80;99.90;;;;;;5055217;28;20111;-56
2023/01/13 00:41:27;;;;;;;15.38;2.70;;;7.80;99.90;;;;;;5055206;28;20052;-50
2023/01/13 00:43:54;;;;;;;14.93;2.75;;;7.80;99.90;;;;;;5055079;28;20041;-57
2023/01/13 00:46:21;;;;;;;15.65;2.67;;;7.80;99.90;;;;;;5055241;28;20045;-52
2023/01/13 00:48:50;;;;;;;11.63;2.67;;;7.80;99.90;;;;;;5053752;28;20411;-55
2023/01/13 00:51:17;;;;;;;14.15;2.50;;;7.80;99.90;;;;;;5055417;28;20072;-53
2023/01/13 00:53:43;;;;;;;11.25;2.22;;;7.80;99.90;;;;;;5054973;28;20048;-47
2023/01/13 00:56:13;;;;;;;14.23;2.33;;;7.80;99.90;;;;;;5055124;28;20040;-48
2023/01/13 00:58:39;;;;;;;18.80;2.70;;;7.80;99.90;;;;;;5053493;28;20132;-48
2023/01/13 01:01:06;;;;;;;13.55;2.55;;;7.80;99.90;;;;;;5054576;28;20072;-47
2023/01/13 01:03:33;;;;;;;12.77;2.75;;;7.70;99.90;;;;;;5054155;28;20498;-46
2023/01/13 01:06:00;;;;;;;9.27;2.20;;;7.70;99.90;;;;;;5054184;28;20112;-51
2023/01/13 01:08:27;;;;;;;14.15;2.65;;;7.70;99.90;;;;;;5054377;28;20048;-58
2023/01/13 01:10:53;;;;;;;10.40;2.28;;;7.70;99.90;;;;;;5054457;28;20037;-54
2023/01/13 01:13:20;;;;;;;10.80;2.22;;;7.60;99.90;;;;;;5054361;28;20045;-57
2023/01/13 01:15:47;;;;;;;19.70;2.95;;;7.60;99.90;;;;;;5054277;28;20048;-47
2023/01/13 01:18:14;;;;;;;13.95;2.30;;;7.60;99.90;;;;;;5052966;28;20464;-50
2023/01/13 01:20:40;;;;;;;12.80;2.55;;;7.60;99.90;;;;;;5054836;28;20099;-57
2023/01/13 01:23:07;;;;;;;20.80;3.03;;;7.60;99.90;;;;;;5054503;28;20067;-49
2023/01/13 01:25:34;;;;;;;14.60;2.83;;;7.60;99.90;;;;;;5054381;28;20464;-52
2023/01/13 01:28:01;;;;;;;20.65;4.07;;;7.60;99.90;;;;;;5054288;28;20040;-53
2023/01/13 01:30:27;;;;;;;16.23;2.90;;;7.60;99.90;;;;;;5054455;28;20395;-54
2023/01/13 01:32:56;;;;;;;17.80;2.63;;;7.60;99.90;;;;;;5054265;28;20040;-52
2023/01/13 01:35:22;;;;;;;16.17;2.88;;;7.60;99.90;;;;;;5054321;28;20044;-51
2023/01/13 01:37:49;;;;;;;18.30;2.60;;;7.50;99.90;;;;;;5053994;28;20049;-52
2023/01/13 01:40:16;;;;;;;14.68;2.88;;;7.50;99.90;;;;;;5053912;28;20045;-52
2023/01/13 01:45:29;;;;;;;15.75;2.90;;;7.50;99.90;;;;;;5053327;28;20127;-49
2023/01/13 01:47:56;;;;;;;16.35;2.63;;;7.50;99.90;;;;;;5053330;28;20042;-55
2023/01/13 01:50:22;;;;;;;21.88;3.75;;;7.50;99.90;;;;;;5053935;28;20049;-50
2023/01/13 01:52:49;;;;;;;12.70;2.75;;;7.50;99.90;;;;;;5053776;28;20045;-51
2023/01/13 01:55:16;;;;;;;17.05;3.53;;;7.50;99.90;;;;;;5053793;28;20094;-55
2023/01/13 01:57:43;;;;;;;17.70;3.35;;;7.50;99.90;;;;;;5054001;28;20044;-53
2023/01/13 02:00:09;;;;;;;16.75;2.65;;;7.40;99.90;;;;;;5053603;28;20029;-53
2023/01/13 02:02:39;;;;;;;22.50;3.25;;;7.40;99.90;;;;;;5053169;28;20371;-51
2023/01/13 02:05:06;;;;;;;19.45;3.13;;;7.40;99.90;;;;;;5053576;28;20040;-53
2023/01/13 02:07:33;;;;;;;20.05;3.22;;;7.40;99.90;;;;;;5054025;28;20415;-48
2023/01/13 02:09:59;;;;;;;18.85;3.67;;;7.40;99.90;;;;;;5053477;28;20075;-56
2023/01/13 02:12:29;;;;;;;19.35;3.55;;;7.40;99.90;;;;;;5053698;28;20443;-52
2023/01/13 02:14:56;;;;;;;19.55;4.22;;;7.40;99.90;;;;;;5053377;28;20049;-51
2023/01/13 02:17:22;;;;;;;16.98;3.38;;;7.40;99.90;;;;;;5053632;28;20049;-51
2023/01/13 02:19:49;;;;;;;21.70;3.70;;;7.40;99.90;;;;;;5053480;28;20045;-52
2023/01/13 02:22:16;;;;;;;18.70;3.35;;;7.40;99.90;;;;;;5053410;28;20041;-57
2023/01/13 02:24:55;;;;;;;19.70;3.10;;;7.40;99.90;;;;;;5052191;28;20041;-53
2023/01/13 02:27:22;;;;;;;18.70;2.95;;;7.40;99.90;;;;;;5053364;28;20036;-50
2023/01/13 02:32:35;;;;;;;18.45;2.92;;;7.40;99.90;;;;;;5053464;28;20049;-53
2023/01/13 02:35:02;;;;;;;17.98;3.00;;;7.30;99.90;;;;;;5053481;28;20460;-52
2023/01/13 02:37:28;;;;;;;23.85;3.40;;;7.40;99.90;;;;;;5052775;28;20103;-53
2023/01/13 02:39:55;;;;;;;21.25;3.30;;;7.30;99.90;;;;;;5053363;28;20442;-53
2023/01/13 02:45:07;;;;;;;18.23;3.50;;;7.30;99.90;;;;;;5053299;28;20053;-50
2023/01/13 02:47:34;;;;;;;14.95;3.00;;;7.30;99.90;;;;;;5053044;28;20384;-55
2023/01/13 02:50:01;;;;;;;17.63;3.72;;;7.30;99.90;;;;;;5052946;28;20484;-49
2023/01/13 02:52:27;;;;;;;19.02;3.60;;;7.30;99.90;;;;;;5053136;28;20075;-49
2023/01/13 02:54:54;;;;;;;18.70;3.30;;;7.30;99.90;;;;;;5053243;28;20059;-56
2023/01/13 02:57:21;;;;;;;18.67;3.67;;;7.30;99.90;;;;;;5053719;28;20048;-50
2023/01/13 02:59:48;;;;;;;20.65;3.33;;;7.30;99.90;;;;;;5056981;28;20065;-47
2023/01/13 03:02:14;;;;;;;17.35;2.75;;;7.30;99.90;;;;;;5057346;28;20460;-54
2023/01/13 03:04:41;;;;;;;19.15;3.63;;;7.30;99.90;;;;;;5057247;28;20041;-55
2023/01/13 03:07:08;;;;;;;17.65;3.10;;;7.30;99.90;;;;;;5057062;28;20041;-54
2023/01/13 03:09:35;;;;;;;17.02;3.22;;;7.30;99.90;;;;;;5056937;28;20393;-51
2023/01/13 03:12:02;;;;;;;17.23;3.78;;;7.30;99.90;;;;;;5056821;28;20045;-50
2023/01/13 03:14:28;;;;;;;19.20;4.20;;;7.30;99.90;;;;;;5056802;28;20037;-50
2023/01/13 03:16:55;;;;;;;16.85;2.83;;;7.30;99.90;;;;;;5056972;28;20048;-56
2023/01/13 03:19:23;;;;;;;18.83;3.80;;;7.30;99.90;;;;;;5057024;28;20067;-52
2023/01/13 03:21:50;;;;;;;15.77;3.15;;;7.30;99.90;;;;;;5056662;28;20052;-54
2023/01/13 03:24:17;;;;;;;19.05;3.42;;;7.30;99.90;;;;;;5056521;28;20087;-49
2023/01/13 03:26:43;;;;;;;19.58;3.90;;;7.30;99.90;;;;;;5056599;28;20041;-52
2023/01/13 03:29:10;;;;;;;20.25;3.60;;;7.30;99.90;;;;;;5056836;28;20377;-52
2023/01/13 03:31:37;;;;;;;15.75;3.90;;;7.30;99.90;;;;;;5056688;28;20041;-52
2023/01/13 03:34:04;;;;;;;15.93;3.60;;;7.30;99.90;;;;;;5056642;28;20073;-53
2023/01/13 03:36:31;;;;;;;22.80;4.13;;;7.30;99.90;;;;;;5056303;28;20060;-55
2023/01/13 03:38:57;;;;;;;18.48;3.13;;;7.30;99.90;;;;;;5055206;28;20496;-51
2023/01/13 03:41:24;;;;;;;19.95;3.42;;;7.30;99.90;;;;;;5056316;28;20045;-50
2023/01/13 03:46:53;;;;;;;16.80;3.33;;;7.30;99.90;;;;;;5013974;28;20046;-52
2023/01/13 03:49:20;;;;;;;18.70;3.58;;;7.30;99.90;;;;;;5047658;28;20481;-54
2023/01/13 03:51:47;;;;;;;20.52;4.22;;;7.30;99.90;;;;;;5056363;28;20439;-53
2023/01/13 03:54:14;;;;;;;17.83;3.38;;;7.30;99.90;;;;;;5056353;28;20107;-52
2023/01/13 03:56:41;;;;;;;15.25;3.08;;;7.30;99.90;;;;;;5055985;28;20102;-53
2023/01/13 03:59:07;;;;;;;20.80;3.63;;;7.30;99.90;;;;;;5055929;28;20550;-51
2023/01/13 04:01:34;;;;;;;18.30;3.40;;;7.30;99.90;;;;;;5055964;28;20049;-49
2023/01/13 04:04:01;;;;;;;22.20;4.22;;;7.30;99.90;;;;;;5055863;28;20460;-52
2023/01/13 04:06:28;;;;;;;21.88;3.40;;;7.30;99.90;;;;;;5056078;28;20068;-56
2023/01/13 04:08:55;;;;;;;20.42;3.63;;;7.30;99.90;;;;;;5054711;28;20045;-48
2023/01/13 04:11:21;;;;;;;17.50;3.80;;;7.30;99.90;;;;;;5056068;28;20487;-50
2023/01/13 04:13:48;;;;;;;17.63;3.45;;;7.30;99.90;;;;;;5055936;28;20049;-58
2023/01/13 04:16:15;;;;;;;19.85;4.07;;;7.30;99.90;;;;;;5055686;28;20071;-54
2023/01/13 04:18:42;;;;;;;14.32;3.30;;;7.30;99.90;;;;;;5055867;28;20404;-56
2023/01/13 04:21:08;;;;;;;22.35;3.78;;;7.40;99.90;;;;;;5055544;28;20504;-53
2023/01/13 04:23:35;;;;;;;23.52;4.30;;;7.40;99.90;;;;;;5055668;28;20083;-53
2023/01/13 04:26:02;;;;;;;18.77;3.92;;;7.40;99.90;;;;;;5055468;28;20037;-54
2023/01/13 04:28:29;;;;;;;18.75;3.90;;;7.50;99.90;;;;;;5055684;28;20045;-52
2023/01/13 04:30:55;;;;;;;20.08;3.50;;;7.60;99.90;;;;;;5055680;28;20095;-49
2023/01/13 04:33:22;;;;;;;21.30;4.47;;;7.60;99.90;;;;;;5055474;28;20132;-56
2023/01/13 04:35:49;;;;;;;21.90;3.60;;;7.50;99.90;;;;;;5055668;28;20045;-51
2023/01/13 04:38:15;;;;;;;23.27;3.53;;;7.50;99.90;;;;;;5055632;28;20069;-51
2023/01/13 04:40:42;;;;;;;19.50;3.78;;;7.40;99.90;;;;;;5055610;28;20041;-56
2023/01/13 04:43:09;;;;;;;21.05;4.53;;;7.40;99.90;;;;;;5054048;28;20037;-54
2023/01/13 04:45:36;;;;;;;23.77;3.72;;;7.40;99.90;;;;;;5055187;28;20041;-53
2023/01/13 04:48:02;;;;;;;19.70;3.90;;;7.30;99.90;;;;;;5054130;28;20049;-55
2023/01/13 04:50:29;;;;;;;18.90;3.33;;;7.30;99.90;;;;;;5055399;28;20090;-54
2023/01/13 04:52:56;;;;;;;18.63;3.75;;;7.30;99.90;;;;;;5055537;28;20037;-50
2023/01/13 04:55:23;;;;;;;21.38;3.45;;;7.30;99.90;;;;;;5054869;28;20041;-53
2023/01/13 04:57:49;;;;;;;20.80;4.60;;;7.20;99.90;;;;;;5054635;28;20033;-48
2023/01/13 05:00:16;;;;;;;21.58;3.88;;;7.20;99.90;;;;;;5054895;28;20041;-51
2023/01/13 05:02:43;;;;;;;22.50;3.50;;;7.20;99.90;;;;;;5055293;28;20037;-51
2023/01/13 05:05:10;;;;;;;13.05;3.00;;;7.20;99.90;;;;;;5054837;28;20450;-54
2023/01/13 05:07:36;;;;;;;21.75;4.20;;;7.20;99.90;;;;;;5054899;28;20098;-51
2023/01/13 05:10:03;;;;;;;20.63;3.67;;;7.20;99.90;;;;;;5054790;28;20397;-49
2023/01/13 05:18:01;;;;;;;16.23;3.75;;;7.20;99.90;;;;;;5054642;28;20123;-47
2023/01/13 05:20:28;;;;;;;19.25;3.10;;;7.20;99.90;;;;;;5054564;28;20041;-49
2023/01/13 05:25:40;;;;;;;23.23;3.67;;;7.20;99.90;;;;;;5054200;28;20049;-54
2023/01/13 05:28:09;;;;;;;20.90;3.33;;;7.20;99.90;;;;;;5054507;28;20103;-56
2023/01/13 05:30:36;;;;;;;19.77;3.50;;;7.10;99.90;;;;;;5054146;28;20491;-55
2023/01/13 05:33:03;;;;;;;19.80;4.00;;;7.10;99.90;;;;;;5054905;28;20045;-52
2023/01/13 05:35:30;;;;;;;19.13;3.60;;;7.10;99.90;;;;;;5054323;28;20496;-55
2023/01/13 05:37:56;;;;;;;18.50;3.83;;;7.10;99.90;;;;;;5053224;28;20377;-52
2023/01/13 05:43:24;;;;;;;14.63;2.80;;;7.10;99.90;;;;;;5054073;28;20049;-57
2023/01/13 05:45:50;;;;;;;20.50;3.42;;;7.10;99.90;;;;;;5054058;28;20316;-53
2023/01/13 05:48:18;;;;;;;19.27;4.43;;;7.10;99.90;;;;;;5054089;28;20120;-55
2023/01/13 05:50:44;;;;;;;16.15;3.25;;;7.10;99.90;;;;;;5053334;28;20099;-50
2023/01/13 05:53:11;;;;;;;13.57;2.80;;;7.10;99.90;;;;;;5054206;28;20380;-55
2023/01/13 05:55:38;;;;;;;17.13;3.30;;;7.10;99.90;;;;;;5053971;28;20048;-53
2023/01/13 05:58:05;;;;;;;17.35;3.28;;;7.20;99.90;;;;;;5053898;28;20069;-53
2023/01/13 06:00:31;;;;;;;17.60;2.72;;;7.10;99.90;;;;;;5054308;28;20037;-55
2023/01/13 06:02:58;;;;;;;12.73;2.85;;;7.10;99.90;;;;;;5053992;28;20044;-56
2023/01/13 06:05:25;;;;;;;12.73;2.72;;;7.10;99.90;;;;;;5053753;28;20119;-50
2023/01/13 06:07:52;;;;;;;15.18;3.10;;;7.10;99.90;;;;;;5053964;28;20041;-49
2023/01/13 06:10:18;;;;;;;13.13;2.58;;;7.10;99.90;;;;;;5053650;28;20076;-49
2023/01/13 06:12:45;;;;;;;17.73;2.80;;;7.10;99.90;;;;;;5054305;28;20438;-51
2023/01/13 06:15:12;;;;;;;16.77;3.50;;;7.10;99.90;;;;;;5053890;28;20049;-53
2023/01/13 06:17:38;;;;;;;14.60;3.05;;;7.10;99.90;;;;;;5053764;28;20041;-47
2023/01/13 06:20:08;;;;;;;19.02;3.42;;;7.10;99.90;;;;;;5053782;28;20106;-48
2023/01/13 06:22:35;;;;;;;15.18;3.50;;;7.10;99.90;;;;;;5053952;28;20048;-54
2023/01/13 06:25:02;;;;;;;17.70;2.65;;;7.10;99.90;;;;;;5052360;28;20045;-48
2023/01/13 06:27:29;;;;;;;13.73;3.00;;;7.10;99.90;;;;;;5053020;28;20397;-52
2023/01/13 06:29:56;;;;;;;15.15;3.08;;;7.20;99.90;;;;;;5053951;28;20045;-51
2023/01/13 06:32:22;;;;;;;20.77;4.00;;;7.10;99.90;;;;;;5053081;28;20033;-53
2023/01/13 06:34:49;;;;;;;20.75;4.15;;;7.10;99.90;;;;;;5053442;28;20094;-54
2023/01/13 06:37:16;;;;;;;18.80;3.72;;;7.10;99.90;;;;;;5053395;28;20083;-55
2023/01/13 06:39:43;;;;;;;18.33;4.28;;;7.10;99.90;;;;;;5053072;28;20095;-53
2023/01/13 06:44:56;;;;;;;20.77;3.50;;;7.20;99.90;;;;;;5053602;28;20045;-57
2023/01/13 06:47:22;;;;;;;20.85;4.28;;;7.20;99.90;;;;;;5053648;28;20412;-53
2023/01/13 06:49:49;;;;;;;27.63;3.60;;;7.20;99.90;;;;;;5053602;28;20052;-51
2023/01/13 06:52:16;;;;;;;25.13;3.85;;;7.20;99.90;;;;;;5053072;28;20439;-56
2023/01/13 06:54:43;;;;;;;22.63;3.95;;;7.20;99.90;;;;;;5053427;28;20107;-53
2023/01/13 06:57:09;;;;;;;17.48;4.15;;;7.20;99.90;;;;;;5053338;28;20115;-56
2023/01/13 06:59:36;;;;;;;18.42;3.53;;;7.20;99.90;;;;;;5053752;28;20045;-57
2023/01/13 07:02:03;;;;;;;15.52;3.53;;;7.20;99.90;;;;;;5053007;28;20080;-52
2023/01/13 07:04:30;;;;;;;19.33;3.58;;;7.20;99.90;;;;;;5053279;28;20041;-53
2023/01/13 07:06:56;;;;;;;14.02;3.53;;;7.20;99.90;;;;;;5053365;28;20048;-54
2023/01/13 07:09:23;;;;;;;17.70;3.70;;;7.20;99.90;;;;;;5052872;28;20057;-57
2023/01/13 07:11:51;;;;;;;18.25;3.17;;;7.30;99.90;;;;;;5051989;28;20072;-57
2023/01/13 07:17:23;;;;;;;18.63;3.63;;;7.40;99.90;;;;;;5029680;28;20053;-54
2023/01/13 07:19:50;;;;;;;19.35;3.55;;;7.40;99.90;;;;;;5052731;28;20120;-56
2023/01/13 07:22:17;;;;;;;16.45;3.10;;;7.50;99.90;;;;;;5053198;28;20096;-57
2023/01/13 07:24:44;;;;;;;20.40;3.55;;;7.50;99.90;;;;;;5053031;28;20469;-57
2023/01/13 07:27:11;;;;;;;20.83;3.50;;;7.50;99.90;;;;;;5053295;28;20464;-53
2023/01/13 07:29:38;;;;;;;19.38;3.63;;;7.50;99.90;;;;;;5053309;28;20095;-53
2023/01/13 07:32:06;;;;;;;17.23;3.53;;;7.50;99.90;;;;;;5053011;28;20102;-54
2023/01/13 07:34:33;;;;;;;20.67;3.25;;;7.50;99.90;;;;;;5053123;28;20045;-50
2023/01/13 07:37:00;;;;;;;21.70;3.80;;;7.40;99.90;;;;;;5052926;28;20404;-57
2023/01/13 07:39:26;;;;;;;16.08;3.38;;;7.40;99.90;;;;;;5053150;28;20477;-52
2023/01/13 07:44:39;;;;;;;17.67;3.50;;;7.40;99.90;;;;;;5054237;28;20045;-51
2023/01/13 07:47:09;;;;;;;25.80;4.13;;;7.40;99.90;;;;;;5056428;28;20041;-54
2023/01/13 07:49:36;;;;;;;14.15;3.53;;;7.40;99.90;;;;;;5056702;28;20380;-49
2023/01/13 07:52:02;;;;;;;17.08;3.70;;;7.30;99.90;;;;;;5056822;28;20041;-52
2023/01/13 07:54:29;;;;;;;24.73;4.50;;;7.30;99.90;;;;;;5055038;28;20056;-51
2023/01/13 07:57:06;;;;;;;21.67;4.38;;;7.30;99.90;;;;;;5056629;28;20047;-56
2023/01/13 07:59:33;;;;;;;21.08;4.22;;;7.30;99.90;;;;;;5056564;28;20107;-54
2023/01/13 08:01:59;;;;;;;19.45;3.67;;;7.20;99.90;;;;;;5056691;28;20068;-56
2023/01/13 08:04:26;;;;;;;19.52;3.38;;;7.30;99.90;;;;;;5056457;28;20048;-53
2023/01/13 08:06:53;;;;;;;20.63;3.78;;;7.30;99.90;;;;;;5056211;28;20044;-52
2023/01/13 08:09:20;;;;;;;16.00;3.38;;;7.30;99.90;;;;;;5055933;28;20045;-58
2023/01/13 08:13:16;;;;;;;21.85;3.63;;;7.40;99.90;;;;;;5056575;28;20037;-53
2023/01/13 08:14:34;;;;;;;25.42;3.40;;;7.40;99.90;;;;;;5055179;28;20530;-53
2023/01/13 08:17:01;;;;;;;15.32;2.97;;;7.40;99.90;;;;;;5055666;28;20049;-56
2023/01/13 08:19:27;;;;;;;20.52;4.00;;;7.40;99.90;;;;;;5055276;28;20522;-51
2023/01/13 08:21:54;;;;;;;24.20;3.70;;;7.50;99.90;;;;;;5055794;28;20037;-55
2023/01/13 08:24:21;;;;;;;15.10;3.55;;;7.50;99.90;;;;;;5055340;28;20091;-55
2023/01/13 08:26:48;;;;;;;18.17;3.65;;;7.40;99.90;;;;;;5055879;28;20526;-56
2023/01/13 08:29:14;;;;;;;18.23;3.78;;;7.40;99.90;;;;;;5055285;28;20044;-56
2023/01/13 08:31:41;;;;;;;20.13;3.55;;;7.40;99.90;;;;;;5054272;28;20045;-53
2023/01/13 08:34:08;;;;;;;17.70;3.67;;;7.40;99.90;;;;;;5054244;28;20045;-54
2023/01/13 08:36:35;;;;;;;20.73;3.35;;;7.40;99.90;;;;;;5053889;28;20045;-55
2023/01/13 08:39:01;;;;;;;18.15;3.72;;;7.40;99.90;;;;;;5053942;28;20086;-57
2023/01/13 08:44:13;;;;;;;16.83;2.95;;;7.50;99.90;;;;;;5054248;28;20045;-56
2023/01/13 08:46:40;;;;;;;21.58;3.42;;;7.50;99.90;;;;;;5055556;28;20056;-57
2023/01/13 08:49:07;;;;;;;17.48;3.58;;;7.50;99.90;;;;;;5037842;28;20141;-53
2023/01/13 08:51:34;;;;;;;19.48;3.55;;;7.50;99.90;;;;;;5055378;28;20044;-56
2023/01/13 08:54:01;;;;;;;17.55;3.78;;;7.50;99.90;;;;;;5055109;28;20115;-51
2023/01/13 08:56:28;;;;;;;23.23;4.10;;;7.50;99.90;;;;;;5054732;28;20052;-53
2023/01/13 08:58:54;;;;;;;19.88;3.53;;;7.50;99.90;;;;;;5055137;28;20047;-55
2023/01/13 09:01:21;;;;;;;18.73;3.92;;;7.50;99.90;;;;;;5054961;28;20079;-50
2023/01/13 09:03:48;;;;;;;17.98;3.42;;;7.50;99.90;;;;;;5054815;28;20051;-52
2023/01/13 09:06:15;;;;;;;18.05;3.30;;;7.50;99.90;;;;;;5054720;28;20116;-57
2023/01/13 09:08:41;;;;;;;20.17;3.80;;;7.50;99.90;;;;;;5054641;28;20037;-53
2023/01/13 09:13:53;;;;;;;21.73;4.28;;;7.50;99.90;;;;;;5054713;28;20049;-55
2023/01/13 09:16:20;;;;;;;18.40;3.17;;;7.60;99.90;;;;;;5054373;28;20044;-54
2023/01/13 09:18:47;;;;;;;19.25;3.90;;;7.60;99.90;;;;;;5054848;28;20041;-54
2023/01/13 09:21:14;;;;;;;14.48;3.47;;;7.60;99.90;;;;;;5053512;28;20409;-56
2023/01/13 09:23:40;;;;;;;18.85;3.42;;;7.60;99.90;;;;;;5054634;28;20488;-55
2023/01/13 09:26:07;;;;;;;18.25;3.13;;;7.60;99.90;;;;;;5054363;28;20447;-55
2023/01/13 09:28:34;;;;;;;18.98;3.95;;;7.60;99.90;;;;;;5054648;28;20457;-55
2023/01/13 09:31:00;;;;;;;15.98;3.88;;;7.70;99.90;;;;;;5054489;28;20037;-57
2023/01/13 09:36:13;;;;;;;16.40;3.75;;;7.70;99.90;;;;;;5054107;28;20511;-49
2023/01/13 09:38:39;;;;;;;15.85;3.50;;;7.70;99.90;;;;;;5054140;28;20037;-50
2023/01/13 09:43:52;;;;;;;16.52;4.00;;;7.80;99.90;;;;;;5054271;28;20037;-52
2023/01/13 09:43:53;;;;;;;19.20;3.85;;;7.80;99.90;;;;;;5054621;28;20111;-58
2023/01/13 09:49:06;;;;;;;21.23;3.35;;;7.90;99.90;;;;;;5054358;28;20072;-50
2023/01/13 09:51:33;;;;;;;16.63;3.30;;;7.90;99.90;;;;;;5054460;28;20102;-54
2023/01/13 09:54:01;;;;;;;20.25;3.70;;;7.90;99.90;;;;;;5054152;28;20094;-55
2023/01/13 09:56:27;;;;;;;15.25;3.35;;;8.00;99.90;;;;;;5053953;28;20044;-54
2023/01/13 09:58:54;;;;;;;18.50;3.13;;;8.00;99.90;;;;;;5054279;28;20041;-49
2023/01/13 10:01:21;;;;;;;11.82;2.95;;;8.10;99.90;;;;;;5054230;28;20045;-52
2023/01/13 10:03:48;;;;;;;16.88;3.03;;;8.20;99.90;;;;;;5054159;28;20048;-51
2023/01/13 10:06:15;;;;;;;17.42;3.33;;;8.20;99.90;;;;;;5053481;28;20507;-53
2023/01/13 10:08:42;;;;;;;19.67;3.45;;;8.20;99.90;;;;;;5053367;28;20480;-52
2023/01/13 10:13:54;;;;;;;12.82;3.00;;;8.20;99.90;;;;;;5053804;28;20045;-54
2023/01/13 10:16:21;;;;;;;13.32;2.70;;;8.30;99.90;;;;;;5051892;28;20091;-47
2023/01/13 10:18:48;;;;;;;12.65;3.13;;;8.30;99.90;;;;;;5053605;28;20044;-50
2023/01/13 10:21:14;;;;;;;17.15;2.92;;;8.30;99.90;;;;;;5053347;28;20569;-56
2023/01/13 10:23:41;;;;;;;13.30;2.63;;;8.30;99.90;;;;;;5053779;28;20033;-54
2023/01/13 10:26:08;;;;;;;12.90;2.60;;;8.30;99.90;;;;;;5053338;28;20043;-53
2023/01/13 10:28:35;;;;;;;15.13;2.80;;;8.40;99.90;;;;;;5053877;28;20041;-54
2023/01/13 10:31:01;;;;;;;17.95;3.50;;;8.40;99.90;;;;;;5053770;28;20040;-54
2023/01/13 10:33:28;;;;;;;12.60;3.40;;;8.40;99.90;;;;;;5053543;28;20036;-55
2023/01/13 10:35:55;;;;;;;11.95;3.50;;;8.40;99.90;;;;;;5053268;28;20110;-51
2023/01/13 10:38:22;;;;;;;13.10;3.88;;;8.50;99.90;;;;;;5053850;28;20045;-54
2023/01/13 10:40:49;;;;;;;16.23;3.47;;;8.50;99.90;;;;;;5053346;28;20045;-49
2023/01/13 10:43:15;;;;;;;13.93;3.85;;;8.60;99.90;;;;;;5053287;28;20041;-53
2023/01/13 10:45:42;;;;;;;19.13;4.18;;;8.60;99.90;;;;;;5053415;28;20056;-49
2023/01/13 10:48:09;;;;;;;18.52;4.75;;;8.60;99.90;;;;;;5053659;28;20045;-54
2023/01/13 10:50:36;;;;;;;31.42;6.53;;;8.70;99.90;;;;;;5053443;28;20041;-54
2023/01/13 10:53:02;;;;;;;30.92;8.68;;;8.80;99.90;;;;;;5053262;28;20090;-53
2023/01/13 10:55:30;;;;;;;16.88;4.10;;;8.80;99.90;;;;;;5053099;28;20053;-56
2023/01/13 10:57:57;;;;;;;14.40;3.97;;;8.80;99.90;;;;;;5053341;28;20048;-55
2023/01/13 11:00:24;;;;;;;15.95;3.30;;;8.90;99.90;;;;;;5053567;28;20049;-52
2023/01/13 11:02:51;;;;;;;13.20;3.35;;;8.90;99.90;;;;;;5053255;28;20045;-55
2023/01/13 11:05:17;;;;;;;13.98;4.20;;;8.90;99.90;;;;;;5053374;28;20076;-52
2023/01/13 11:07:44;;;;;;;20.17;4.70;;;8.90;99.90;;;;;;5053335;28;20444;-52
2023/01/13 11:10:11;;;;;;;13.65;3.78;;;8.90;99.90;;;;;;5053125;28;20106;-54
2023/01/13 11:12:38;;;;;;;16.92;4.03;;;9.00;99.90;;;;;;5053398;28;20420;-51
2023/01/13 11:15:04;;;;;;;13.82;3.75;;;9.00;99.90;;;;;;5053344;28;20086;-54
2023/01/13 11:17:31;;;;;;;13.45;3.63;;;9.00;99.90;;;;;;5052909;28;20041;-54
2023/01/13 11:19:58;;;;;;;14.98;3.63;;;9.00;99.90;;;;;;5056440;28;20045;-54
2023/01/13 11:22:25;;;;;;;13.25;3.15;;;9.00;99.90;;;;;;5056908;28;20412;-56
2023/01/13 11:24:51;;;;;;;12.18;3.17;;;9.10;99.90;;;;;;5056927;28;20464;-54
2023/01/13 11:27:18;;;;;;;15.68;3.40;;;9.10;99.90;;;;;;5056801;28;20040;-53
2023/01/13 11:29:45;;;;;;;16.85;2.97;;;9.10;99.90;;;;;;5056804;28;20439;-56
2023/01/13 11:32:12;;;;;;;12.93;3.13;;;9.10;99.90;;;;;;5056934;28;20099;-54
2023/01/13 11:34:39;;;;;;;14.85;3.20;;;9.20;99.90;;;;;;5056910;28;20119;-54
2023/01/13 11:37:05;;;;;;;19.63;3.22;;;9.20;99.90;;;;;;5056544;28;20434;-55
2023/01/13 11:39:32;;;;;;;17.27;3.25;;;9.30;99.90;;;;;;5056994;28;20586;-54
2023/01/13 11:44:44;;;;;;;14.95;2.85;;;9.30;99.90;;;;;;5056768;28;20041;-51
2023/01/13 11:47:11;;;;;;;11.18;2.70;;;9.40;99.90;;;;;;5056201;28;20048;-56
2023/01/13 11:49:38;;;;;;;14.77;3.22;;;9.40;99.90;;;;;;5056753;28;20071;-54
2023/01/13 11:52:05;;;;;;;11.48;2.88;;;9.50;99.90;;;;;;5056515;28;20041;-55
2023/01/13 11:54:32;;;;;;;11.00;2.67;;;9.50;99.90;;;;;;5056342;28;20037;-54
2023/01/13 11:57:00;;;;;;;14.75;2.90;;;9.60;99.90;;;;;;5056002;28;20044;-56
2023/01/13 11:59:27;;;;;;;12.68;2.90;;;9.70;99.90;;;;;;5056403;28;20049;-56
2023/01/13 12:01:54;;;;;;;18.00;3.20;;;9.80;99.90;;;;;;5056427;28;20037;-54
2023/01/13 12:04:21;;;;;;;14.32;3.08;;;9.80;99.90;;;;;;5056064;28;20041;-58
2023/01/13 12:06:48;;;;;;;12.15;2.58;;;9.80;99.90;;;;;;5056296;28;20099;-51
2023/01/13 12:09:15;;;;;;;14.40;3.13;;;9.80;99.90;;;;;;5055920;28;20380;-55
2023/01/13 12:14:27;;;;;;;13.23;3.70;;;9.90;99.90;;;;;;5055956;28;20461;-52
2023/01/13 12:16:53;;;;;;;16.30;3.17;;;10.00;99.90;;;;;;5055699;28;20076;-53
2023/01/13 12:19:20;;;;;;;16.45;2.58;;;10.00;99.90;;;;;;5055972;28;20045;-54
2023/01/13 12:21:47;;;;;;;12.60;3.50;;;10.00;99.90;;;;;;5056166;28;20040;-54
2023/01/13 12:24:14;;;;;;;10.57;2.63;;;10.00;99.90;;;;;;5055840;28;20438;-58
2023/01/13 12:26:40;;;;;;;10.02;2.72;;;10.00;99.90;;;;;;5055621;28;20076;-56
2023/01/13 12:29:07;;;;;;;14.85;2.67;;;10.10;99.90;;;;;;5056055;28;20045;-54
2023/01/13 12:31:34;;;;;;;12.45;2.97;;;10.10;99.90;;;;;;5054565;28;20044;-56
2023/01/13 12:34:01;;;;;;;15.88;3.03;;;10.10;99.90;;;;;;5055899;28;20040;-54
2023/01/13 12:36:27;;;;;;;15.60;3.47;;;10.10;99.90;;;;;;5055515;28;20416;-56
2023/01/13 12:38:54;;;;;;;16.10;3.15;;;10.10;99.90;;;;;;5055732;28;20472;-56
2023/01/13 12:41:23;;;;;;;12.00;3.00;;;10.10;99.90;;;;;;5055441;28;20045;-52
2023/01/13 12:46:35;;;;;;;11.50;2.75;;;10.00;99.90;;;;;;5054990;28;20460;-56
2023/01/13 12:49:03;;;;;;;12.90;2.95;;;10.00;99.90;;;;;;5055584;28;20065;-54
2023/01/13 12:51:34;;;;;;;19.13;3.22;;;10.00;99.90;;;;;;5055618;28;20449;-57
2023/01/13 12:54:01;;;;;;;11.60;2.25;;;10.00;99.90;;;;;;5055091;28;20140;-55
2023/01/13 12:56:28;;;;;;;13.68;2.72;;;10.00;99.90;;;;;;5055290;28;20472;-57
2023/01/13 12:58:55;;;;;;;13.85;3.05;;;10.00;99.90;;;;;;5055108;28;20091;-53
2023/01/13 13:01:21;;;;;;;20.35;4.60;;;10.00;99.90;;;;;;5055157;28;20048;-58
2023/01/13 13:03:48;;;;;;;13.07;3.30;;;10.00;99.90;;;;;;5054718;28;20047;-55
2023/01/13 13:06:15;;;;;;;13.55;2.90;;;10.00;99.90;;;;;;5054835;28;20084;-52
2023/01/13 13:08:42;;;;;;;13.18;2.85;;;10.00;99.90;;;;;;5054727;28;20060;-54
2023/01/13 13:13:16;;;;;;;13.38;3.13;;;10.00;99.90;;;;;;5054546;28;20047;-56
2023/01/13 13:13:55;;;;;;;13.18;2.78;;;10.00;99.90;;;;;;5054509;28;20044;-50
2023/01/13 13:16:22;;;;;;;11.80;2.80;;;10.10;99.90;;;;;;5054293;28;20204;-50
2023/01/13 13:18:49;;;;;;;12.75;3.40;;;10.10;99.90;;;;;;5054646;28;20467;-49
2023/01/13 13:21:15;;;;;;;12.55;3.25;;;10.10;99.90;;;;;;5054952;28;20045;-48
2023/01/13 13:23:48;;;;;;;20.55;3.10;;;10.20;99.90;;;;;;5054833;28;20139;-52
2023/01/13 13:26:15;;;;;;;13.27;2.70;;;10.20;99.90;;;;;;5054684;28;20048;-48
2023/01/13 13:28:42;;;;;;;14.35;3.65;;;10.20;99.90;;;;;;5054935;28;20476;-52
2023/01/13 13:31:08;;;;;;;12.48;2.80;;;10.20;99.90;;;;;;5054705;28;20041;-51
2023/01/13 13:33:35;;;;;;;14.57;3.08;;;10.20;99.90;;;;;;5054045;28;20044;-52
2023/01/13 13:36:04;;;;;;;9.90;2.72;;;10.20;99.90;;;;;;5054025;28;20041;-47
2023/01/13 13:46:48;;;;;;;13.13;2.58;;;10.00;99.90;;;;;;5053727;28;20080;-51